Check out our new PWSWeather beta!
PWSweather.com
Personal Weather Stations
Station Observations
TOWARDSSIXOAKS
Forrest, Sankt IngbertDE 66386

ForrestSankt IngbertDE 66386

Lat: 49.293698, Lon: 7.096075

Elevation: 728.3465

Station Type: WH 3080

High Low Average
Temperature 47.3°F8.5°F 39.9°F4.4°F 43.9°F6.6°F
Dew Point 40.5°F4.7°F 32.2°F0.1°F 36.7°F2.6°F
Winds 8.0 mph -12.9 mph - Calm Calm 1.1 mph 1.8 mph
Wind Gusts 8.3 mph13.4 mph -- 2.9 mph4.7 mph
Humidity 89% 56% 77%
Pressure 30.02 in1016.60 in 29.78 in1008.50 in -
Precipitation 0.92 in23.40 in - -
Hour Temp Dew Point Humidity Winds Wind Gusts Pressure Precip Precip Rate Daily Precip Total
12:00 AM 39.9°F4.4°C 33.0°F0.6°C 76% Calm Calm -- 30.02 in1016.6 mb 0.00 in0.0 mm 0.00 in0.0 mm 0.00 in0.0 mm
12:10 AM 39.9°F4.4°C 33.0°F0.6°C 76% 1.0 mph SW1.6 kmh SW 1.6 mph2.6 kmh 30.02 in1016.6 mb 0.00 in0.0 mm 0.00 in0.0 mm 0.00 in0.0 mm
12:20 AM 40.1°F4.5°C 33.2°F0.7°C 76% 1.0 mph 1.6 kmh 1.6 mph2.6 kmh 30.02 in1016.6 mb 0.00 in0.0 mm 0.00 in0.0 mm 0.00 in0.0 mm
12:30 AM 40.3°F4.6°C 33.3°F0.7°C 76% 2.0 mph 3.2 kmh 2.2 mph3.5 kmh 30.01 in1016.3 mb 0.00 in0.0 mm 0.00 in0.0 mm 0.00 in0.0 mm
12:40 AM 40.5°F4.7°C 33.8°F1.0°C 77% 1.0 mph 1.6 kmh 1.6 mph2.6 kmh 30.02 in1016.6 mb 0.00 in0.0 mm 0.00 in0.0 mm 0.00 in0.0 mm
12:50 AM 40.5°F4.7°C 33.8°F1.0°C 77% Calm Calm 2.2 mph3.5 kmh 30.01 in1016.3 mb 0.00 in0.0 mm 0.00 in0.0 mm 0.00 in0.0 mm
01:00 AM 40.5°F4.7°C 34.2°F1.2°C 78% 1.0 mph NW1.6 kmh NW 1.6 mph2.6 kmh 30.01 in1016.3 mb 0.00 in0.0 mm 0.00 in0.0 mm 0.00 in0.0 mm
01:10 AM 40.5°F4.7°C 34.8°F1.6°C 80% Calm Calm 1.6 mph2.6 kmh 30.01 in1016.3 mb 0.00 in0.0 mm 0.00 in0.0 mm 0.00 in0.0 mm
01:20 AM 40.5°F4.7°C 34.8°F1.6°C 80% Calm Calm -- 30.00 in1015.9 mb 0.00 in0.0 mm 0.00 in0.0 mm 0.00 in0.0 mm
01:30 AM 40.5°F4.7°C 34.8°F1.6°C 80% Calm Calm -- 30.01 in1016.3 mb 0.00 in0.0 mm 0.00 in0.0 mm 0.00 in0.0 mm
01:40 AM 40.5°F4.7°C 35.1°F1.7°C 81% Calm Calm 1.6 mph2.6 kmh 30.00 in1015.9 mb 0.00 in0.0 mm 0.00 in0.0 mm 0.00 in0.0 mm
01:50 AM 40.5°F4.7°C 35.1°F1.7°C 81% Calm Calm 0.7 mph1.1 kmh 30.00 in1015.9 mb 0.00 in0.0 mm 0.00 in0.0 mm 0.01 in0.3 mm
02:00 AM 40.3°F4.6°C 35.2°F1.8°C 82% Calm Calm 0.7 mph1.1 kmh 30.00 in1015.9 mb 0.00 in0.0 mm 0.00 in0.0 mm 0.01 in0.3 mm
02:10 AM 40.3°F4.6°C 35.2°F1.8°C 82% Calm Calm 2.2 mph3.5 kmh 30.00 in1015.9 mb 0.00 in0.0 mm 0.00 in0.0 mm 0.01 in0.3 mm
02:20 AM 40.1°F4.5°C 35.4°F1.9°C 83% 1.0 mph 1.6 kmh 2.2 mph3.5 kmh 30.00 in1015.9 mb 0.00 in0.0 mm 0.00 in0.0 mm 0.01 in0.3 mm
02:30 AM 40.1°F4.5°C 35.4°F1.9°C 83% Calm Calm 1.6 mph2.6 kmh 29.99 in1015.6 mb 0.00 in0.0 mm 0.00 in0.0 mm 0.01 in0.3 mm
02:40 AM 40.1°F4.5°C 35.7°F2.1°C 84% Calm Calm 0.7 mph1.1 kmh 29.99 in1015.6 mb 0.00 in0.0 mm 0.00 in0.0 mm 0.01 in0.3 mm
02:50 AM 40.1°F4.5°C 35.7°F2.1°C 84% Calm Calm 2.2 mph3.5 kmh 29.98 in1015.2 mb 0.00 in0.0 mm 0.00 in0.0 mm 0.01 in0.3 mm
03:00 AM 40.1°F4.5°C 35.7°F2.1°C 84% Calm Calm -- 29.98 in1015.2 mb 0.00 in0.0 mm 0.00 in0.0 mm 0.01 in0.3 mm
03:10 AM 40.1°F4.5°C 35.7°F2.1°C 84% Calm Calm -- 29.98 in1015.2 mb 0.00 in0.0 mm 0.00 in0.0 mm 0.01 in0.3 mm
03:20 AM 40.1°F4.5°C 36.0°F2.2°C 85% Calm Calm 2.2 mph3.5 kmh 29.97 in1014.9 mb 0.00 in0.0 mm 0.00 in0.0 mm 0.02 in0.5 mm
03:30 AM 40.1°F4.5°C 36.0°F2.2°C 85% Calm Calm -- 29.97 in1014.9 mb 0.00 in0.0 mm 0.00 in0.0 mm 0.02 in0.5 mm
03:40 AM 40.1°F4.5°C 36.0°F2.2°C 85% Calm Calm 0.7 mph1.1 kmh 29.97 in1014.9 mb 0.00 in0.0 mm 0.00 in0.0 mm 0.02 in0.5 mm
03:50 AM 40.1°F4.5°C 36.0°F2.2°C 85% Calm Calm 1.6 mph2.6 kmh 29.97 in1014.9 mb 0.00 in0.0 mm 0.00 in0.0 mm 0.02 in0.5 mm
04:00 AM 40.1°F4.5°C 36.0°F2.2°C 85% Calm Calm 1.6 mph2.6 kmh 29.97 in1014.9 mb 0.00 in0.0 mm 0.00 in0.0 mm 0.02 in0.5 mm
04:10 AM 40.3°F4.6°C 36.4°F2.4°C 86% Calm Calm -- 29.96 in1014.6 mb 0.00 in0.0 mm 0.00 in0.0 mm 0.02 in0.5 mm
04:20 AM 40.3°F4.6°C 36.4°F2.4°C 86% 2.0 mph 3.2 kmh 3.1 mph5.0 kmh 29.97 in1014.9 mb 0.00 in0.0 mm 0.00 in0.0 mm 0.02 in0.5 mm
04:30 AM 40.3°F4.6°C 36.4°F2.4°C 86% Calm Calm 0.7 mph1.1 kmh 29.96 in1014.6 mb 0.00 in0.0 mm 0.00 in0.0 mm 0.02 in0.5 mm
04:40 AM 40.3°F4.6°C 36.4°F2.4°C 86% Calm Calm 0.7 mph1.1 kmh 29.96 in1014.6 mb 0.00 in0.0 mm 0.00 in0.0 mm 0.02 in0.5 mm
04:50 AM 40.3°F4.6°C 36.4°F2.4°C 86% Calm Calm 0.7 mph1.1 kmh 29.95 in1014.2 mb 0.00 in0.0 mm 0.00 in0.0 mm 0.02 in0.5 mm
05:00 AM 40.3°F4.6°C 36.4°F2.4°C 86% Calm Calm 2.2 mph3.5 kmh 29.95 in1014.2 mb 0.00 in0.0 mm 0.00 in0.0 mm 0.02 in0.5 mm
05:10 AM 40.3°F4.6°C 36.4°F2.4°C 86% Calm Calm 2.2 mph3.5 kmh 29.96 in1014.6 mb 0.00 in0.0 mm 0.00 in0.0 mm 0.02 in0.5 mm
05:20 AM 40.3°F4.6°C 36.4°F2.4°C 86% Calm Calm 1.6 mph2.6 kmh 29.95 in1014.2 mb 0.00 in0.0 mm 0.00 in0.0 mm 0.02 in0.5 mm
05:30 AM 40.5°F4.7°C 36.6°F2.6°C 86% Calm Calm 1.6 mph2.6 kmh 29.95 in1014.2 mb 0.00 in0.0 mm 0.00 in0.0 mm 0.02 in0.5 mm
05:40 AM 40.5°F4.7°C 36.6°F2.6°C 86% Calm Calm 1.6 mph2.6 kmh 29.95 in1014.2 mb 0.00 in0.0 mm 0.00 in0.0 mm 0.02 in0.5 mm
05:50 AM 40.6°F4.8°C 37.1°F2.8°C 87% Calm Calm 0.7 mph1.1 kmh 29.95 in1014.2 mb 0.00 in0.0 mm 0.00 in0.0 mm 0.02 in0.5 mm
06:00 AM 40.6°F4.8°C 37.1°F2.8°C 87% Calm Calm 1.6 mph2.6 kmh 29.95 in1014.2 mb 0.00 in0.0 mm 0.00 in0.0 mm 0.02 in0.5 mm
06:10 AM 40.8°F4.9°C 37.3°F2.9°C 87% Calm Calm -- 29.94 in1013.9 mb 0.00 in0.0 mm 0.00 in0.0 mm 0.02 in0.5 mm
06:20 AM 40.8°F4.9°C 37.3°F2.9°C 87% Calm Calm 0.7 mph1.1 kmh 29.94 in1013.9 mb 0.00 in0.0 mm 0.00 in0.0 mm 0.02 in0.5 mm
06:30 AM 41.0°F5.0°C 37.7°F3.2°C 88% Calm Calm 2.2 mph3.5 kmh 29.93 in1013.5 mb 0.00 in0.0 mm 0.00 in0.0 mm 0.02 in0.5 mm
06:40 AM 41.0°F5.0°C 37.7°F3.2°C 88% Calm Calm 2.2 mph3.5 kmh 29.94 in1013.9 mb 0.00 in0.0 mm 0.00 in0.0 mm 0.02 in0.5 mm
06:50 AM 41.2°F5.1°C 37.9°F3.3°C 88% Calm Calm 2.2 mph3.5 kmh 29.93 in1013.5 mb 0.00 in0.0 mm 0.00 in0.0 mm 0.02 in0.5 mm
07:00 AM 41.4°F5.2°C 38.4°F3.6°C 89% 1.0 mph NE1.6 kmh NE 2.2 mph3.5 kmh 29.93 in1013.5 mb 0.00 in0.0 mm 0.00 in0.0 mm 0.02 in0.5 mm
07:10 AM 41.5°F5.3°C 38.5°F3.6°C 89% 1.0 mph W1.6 kmh W 2.2 mph3.5 kmh 29.94 in1013.9 mb 0.00 in0.0 mm 0.00 in0.0 mm 0.02 in0.5 mm
07:20 AM 41.5°F5.3°C 38.5°F3.6°C 89% Calm Calm 2.2 mph3.5 kmh 29.93 in1013.5 mb 0.00 in0.0 mm 0.00 in0.0 mm 0.02 in0.5 mm
07:30 AM 41.7°F5.4°C 38.7°F3.7°C 89% Calm Calm 0.7 mph1.1 kmh 29.93 in1013.5 mb 0.00 in0.0 mm 0.00 in0.0 mm 0.02 in0.5 mm
07:40 AM 41.9°F5.5°C 38.9°F3.8°C 89% Calm Calm -- 29.93 in1013.5 mb 0.00 in0.0 mm 0.00 in0.0 mm 0.02 in0.5 mm
07:50 AM 41.9°F5.5°C 38.9°F3.8°C 89% Calm Calm 0.7 mph1.1 kmh 29.94 in1013.9 mb 0.00 in0.0 mm 0.00 in0.0 mm 0.02 in0.5 mm
08:00 AM 42.1°F5.6°C 39.1°F3.9°C 89% Calm Calm 0.7 mph1.1 kmh 29.94 in1013.9 mb 0.00 in0.0 mm 0.00 in0.0 mm 0.02 in0.5 mm
08:10 AM 42.3°F5.7°C 39.3°F4.1°C 89% 2.0 mph SE3.2 kmh SE 2.2 mph3.5 kmh 29.94 in1013.9 mb 0.00 in0.0 mm 0.00 in0.0 mm 0.02 in0.5 mm
08:20 AM 42.4°F5.8°C 39.4°F4.1°C 89% Calm Calm 2.2 mph3.5 kmh 29.94 in1013.9 mb 0.00 in0.0 mm 0.00 in0.0 mm 0.02 in0.5 mm
08:30 AM 42.6°F5.9°C 39.6°F4.2°C 89% Calm Calm 2.2 mph3.5 kmh 29.94 in1013.9 mb 0.00 in0.0 mm 0.00 in0.0 mm 0.02 in0.5 mm
08:40 AM 42.8°F6.0°C 39.8°F4.3°C 89% Calm Calm 0.7 mph1.1 kmh 29.94 in1013.9 mb 0.00 in0.0 mm 0.00 in0.0 mm 0.02 in0.5 mm
08:50 AM 42.8°F6.0°C 39.8°F4.3°C 89% Calm Calm 1.6 mph2.6 kmh 29.94 in1013.9 mb 0.00 in0.0 mm 0.00 in0.0 mm 0.02 in0.5 mm
09:00 AM 43.0°F6.1°C 40.0°F4.4°C 89% 1.0 mph NE1.6 kmh NE 2.2 mph3.5 kmh 29.94 in1013.9 mb 0.00 in0.0 mm 0.00 in0.0 mm 0.02 in0.5 mm
09:10 AM 43.2°F6.2°C 39.9°F4.4°C 88% Calm Calm -- 29.94 in1013.9 mb 0.00 in0.0 mm 0.00 in0.0 mm 0.02 in0.5 mm
09:20 AM 43.2°F6.2°C 39.9°F4.4°C 88% Calm Calm -- 29.94 in1013.9 mb 0.00 in0.0 mm 0.00 in0.0 mm 0.02 in0.5 mm
09:30 AM 43.3°F6.3°C 40.0°F4.4°C 88% Calm Calm -- 29.94 in1013.9 mb 0.00 in0.0 mm 0.00 in0.0 mm 0.02 in0.5 mm
09:40 AM 43.3°F6.3°C 39.7°F4.3°C 87% Calm Calm 1.6 mph2.6 kmh 29.94 in1013.9 mb 0.00 in0.0 mm 0.00 in0.0 mm 0.02 in0.5 mm
09:50 AM 43.5°F6.4°C 39.9°F4.4°C 87% 1.0 mph NE1.6 kmh NE 3.1 mph5.0 kmh 29.94 in1013.9 mb 0.00 in0.0 mm 0.00 in0.0 mm 0.02 in0.5 mm
10:00 AM 43.7°F6.5°C 39.8°F4.3°C 86% 2.0 mph NE3.2 kmh NE 3.1 mph5.0 kmh 29.94 in1013.9 mb 0.00 in0.0 mm 0.00 in0.0 mm 0.02 in0.5 mm
10:10 AM 44.1°F6.7°C 40.1°F4.5°C 86% Calm Calm -- 29.93 in1013.5 mb 0.00 in0.0 mm 0.00 in0.0 mm 0.02 in0.5 mm
10:20 AM 44.4°F6.9°C 40.2°F4.6°C 85% Calm Calm 1.6 mph2.6 kmh 29.93 in1013.5 mb 0.00 in0.0 mm 0.00 in0.0 mm 0.02 in0.5 mm
10:30 AM 44.6°F7.0°C 40.1°F4.5°C 84% 1.0 mph SW1.6 kmh SW 2.2 mph3.5 kmh 29.93 in1013.5 mb 0.00 in0.0 mm 0.00 in0.0 mm 0.02 in0.5 mm
10:40 AM 45.0°F7.2°C 40.1°F4.5°C 83% 2.0 mph NE3.2 kmh NE 3.1 mph5.0 kmh 29.93 in1013.5 mb 0.00 in0.0 mm 0.00 in0.0 mm 0.02 in0.5 mm
10:50 AM 45.1°F7.3°C 40.0°F4.4°C 82% Calm Calm 3.1 mph5.0 kmh 29.93 in1013.5 mb 0.00 in0.0 mm 0.00 in0.0 mm 0.02 in0.5 mm
11:00 AM 45.3°F7.4°C 40.2°F4.6°C 82% 1.0 mph 1.6 kmh 1.6 mph2.6 kmh 29.93 in1013.5 mb 0.00 in0.0 mm 0.00 in0.0 mm 0.02 in0.5 mm
11:10 AM 45.1°F7.3°C 40.0°F4.4°C 82% 2.0 mph E3.2 kmh E 2.2 mph3.5 kmh 29.93 in1013.5 mb 0.00 in0.0 mm 0.00 in0.0 mm 0.04 in1.0 mm
11:20 AM 45.3°F7.4°C 40.5°F4.7°C 83% Calm Calm 0.7 mph1.1 kmh 29.93 in1013.5 mb 0.00 in0.0 mm 0.00 in0.0 mm 0.04 in1.0 mm
11:30 AM 45.5°F7.5°C 39.0°F3.9°C 78% 2.0 mph 3.2 kmh 2.2 mph3.5 kmh 29.93 in1013.5 mb 0.00 in0.0 mm 0.00 in0.0 mm 0.04 in1.0 mm
11:40 AM 45.7°F7.6°C 38.6°F3.7°C 76% 2.0 mph SE3.2 kmh SE 2.2 mph3.5 kmh 29.92 in1013.2 mb 0.00 in0.0 mm 0.00 in0.0 mm 0.04 in1.0 mm
11:50 AM 45.3°F7.4°C 39.8°F4.3°C 81% 2.0 mph S3.2 kmh S 3.8 mph6.1 kmh 29.92 in1013.2 mb 0.00 in0.0 mm 0.00 in0.0 mm 0.04 in1.0 mm
12:00 PM 45.0°F7.2°C 39.8°F4.3°C 82% Calm Calm 3.8 mph6.1 kmh 29.92 in1013.2 mb 0.00 in0.0 mm 0.00 in0.0 mm 0.04 in1.0 mm
12:10 PM 45.1°F7.3°C 40.0°F4.4°C 82% Calm Calm -- 29.92 in1013.2 mb 0.00 in0.0 mm 0.00 in0.0 mm 0.04 in1.0 mm
12:20 PM 45.1°F7.3°C 40.0°F4.4°C 82% 3.0 mph NE4.8 kmh NE 3.1 mph5.0 kmh 29.92 in1013.2 mb 0.00 in0.0 mm 0.00 in0.0 mm 0.05 in1.3 mm
12:30 PM 45.1°F7.3°C 39.7°F4.3°C 81% 3.0 mph NNE4.8 kmh NNE 3.1 mph5.0 kmh 29.91 in1012.9 mb 0.00 in0.0 mm 0.00 in0.0 mm 0.05 in1.3 mm
12:40 PM 45.3°F7.4°C 40.2°F4.6°C 82% Calm Calm 3.1 mph5.0 kmh 29.91 in1012.9 mb 0.00 in0.0 mm 0.00 in0.0 mm 0.05 in1.3 mm
12:50 PM 45.7°F7.6°C 38.6°F3.7°C 76% 5.0 mph SW8.0 kmh SW 5.4 mph8.7 kmh 29.91 in1012.9 mb 0.00 in0.0 mm 0.00 in0.0 mm 0.05 in1.3 mm
01:00 PM 46.0°F7.8°C 38.2°F3.4°C 74% 1.0 mph S1.6 kmh S 5.4 mph8.7 kmh 29.90 in1012.5 mb 0.00 in0.0 mm 0.00 in0.0 mm 0.05 in1.3 mm
01:10 PM 46.0°F7.8°C 37.9°F3.3°C 73% Calm Calm 2.2 mph3.5 kmh 29.90 in1012.5 mb 0.00 in0.0 mm 0.00 in0.0 mm 0.05 in1.3 mm
01:20 PM 46.2°F7.9°C 37.3°F2.9°C 71% 1.0 mph 1.6 kmh 4.5 mph7.2 kmh 29.89 in1012.2 mb 0.00 in0.0 mm 0.00 in0.0 mm 0.06 in1.5 mm
01:30 PM 46.4°F8.0°C 37.5°F3.1°C 71% Calm Calm 4.5 mph7.2 kmh 29.89 in1012.2 mb 0.00 in0.0 mm 0.00 in0.0 mm 0.06 in1.5 mm
01:40 PM 46.4°F8.0°C 37.5°F3.1°C 71% Calm Calm 3.1 mph5.0 kmh 29.89 in1012.2 mb 0.00 in0.0 mm 0.00 in0.0 mm 0.06 in1.5 mm
01:50 PM 46.6°F8.1°C 37.7°F3.2°C 71% 1.0 mph 1.6 kmh 3.1 mph5.0 kmh 29.89 in1012.2 mb 0.00 in0.0 mm 0.00 in0.0 mm 0.06 in1.5 mm
02:00 PM 46.4°F8.0°C 37.5°F3.1°C 71% 1.0 mph SE1.6 kmh SE 3.8 mph6.1 kmh 29.88 in1011.9 mb 0.00 in0.0 mm 0.00 in0.0 mm 0.06 in1.5 mm
02:10 PM 46.4°F8.0°C 37.2°F2.9°C 70% 3.0 mph W4.8 kmh W 3.8 mph6.1 kmh 29.88 in1011.9 mb 0.00 in0.0 mm 0.00 in0.0 mm 0.06 in1.5 mm
02:20 PM 46.6°F8.1°C 37.0°F2.8°C 69% 1.0 mph NE1.6 kmh NE 3.8 mph6.1 kmh 29.87 in1011.5 mb 0.00 in0.0 mm 0.00 in0.0 mm 0.06 in1.5 mm
02:30 PM 46.6°F8.1°C 36.6°F2.6°C 68% 2.0 mph 3.2 kmh 2.2 mph3.5 kmh 29.87 in1011.5 mb 0.00 in0.0 mm 0.00 in0.0 mm 0.06 in1.5 mm
02:40 PM 46.6°F8.1°C 36.6°F2.6°C 68% 1.0 mph NE1.6 kmh NE 3.1 mph5.0 kmh 29.86 in1011.2 mb 0.00 in0.0 mm 0.00 in0.0 mm 0.06 in1.5 mm
02:50 PM 46.8°F8.2°C 36.4°F2.4°C 67% 1.0 mph NE1.6 kmh NE 3.1 mph5.0 kmh 29.86 in1011.2 mb 0.00 in0.0 mm 0.00 in0.0 mm 0.06 in1.5 mm
03:00 PM 46.9°F8.3°C 35.8°F2.1°C 65% 3.0 mph ENE4.8 kmh ENE 3.1 mph5.0 kmh 29.86 in1011.2 mb 0.00 in0.0 mm 0.00 in0.0 mm 0.06 in1.5 mm
03:10 PM 46.9°F8.3°C 35.8°F2.1°C 65% 1.0 mph 1.6 kmh 3.8 mph6.1 kmh 29.86 in1011.2 mb 0.00 in0.0 mm 0.00 in0.0 mm 0.06 in1.5 mm
03:20 PM 46.8°F8.2°C 35.2°F1.8°C 64% 2.0 mph S3.2 kmh S 3.8 mph6.1 kmh 29.86 in1011.2 mb 0.00 in0.0 mm 0.00 in0.0 mm 0.06 in1.5 mm
03:30 PM 46.9°F8.3°C 35.0°F1.7°C 63% 2.0 mph 3.2 kmh 6.0 mph9.7 kmh 29.86 in1011.2 mb 0.00 in0.0 mm 0.00 in0.0 mm 0.06 in1.5 mm
03:40 PM 47.1°F8.4°C 35.2°F1.8°C 63% 3.0 mph SE4.8 kmh SE 6.0 mph9.7 kmh 29.86 in1011.2 mb 0.00 in0.0 mm 0.00 in0.0 mm 0.06 in1.5 mm
03:50 PM 46.9°F8.3°C 35.0°F1.7°C 63% 2.0 mph S3.2 kmh S 4.5 mph7.2 kmh 29.86 in1011.2 mb 0.00 in0.0 mm 0.00 in0.0 mm 0.06 in1.5 mm
04:00 PM 46.9°F8.3°C 34.6°F1.4°C 62% 2.0 mph E3.2 kmh E 4.5 mph7.2 kmh 29.86 in1011.2 mb 0.00 in0.0 mm 0.00 in0.0 mm 0.06 in1.5 mm
04:10 PM 46.8°F8.2°C 34.8°F1.6°C 63% 1.0 mph ESE1.6 kmh ESE 4.5 mph7.2 kmh 29.86 in1011.2 mb 0.00 in0.0 mm 0.00 in0.0 mm 0.06 in1.5 mm
04:20 PM 46.8°F8.2°C 34.8°F1.6°C 63% 1.0 mph 1.6 kmh 3.1 mph5.0 kmh 29.85 in1010.8 mb 0.00 in0.0 mm 0.00 in0.0 mm 0.06 in1.5 mm
04:30 PM 46.8°F8.2°C 34.8°F1.6°C 63% 1.0 mph 1.6 kmh 3.1 mph5.0 kmh 29.85 in1010.8 mb 0.00 in0.0 mm 0.00 in0.0 mm 0.06 in1.5 mm
04:40 PM 46.6°F8.1°C 34.7°F1.5°C 63% 2.0 mph S3.2 kmh S 3.8 mph6.1 kmh 29.85 in1010.8 mb 0.00 in0.0 mm 0.00 in0.0 mm 0.06 in1.5 mm
04:50 PM 46.4°F8.0°C 34.5°F1.4°C 63% 4.0 mph SE6.4 kmh SE 4.5 mph7.2 kmh 29.84 in1010.5 mb 0.00 in0.0 mm 0.00 in0.0 mm 0.06 in1.5 mm
05:00 PM 46.6°F8.1°C 34.3°F1.3°C 62% 1.0 mph NE1.6 kmh NE 5.4 mph8.7 kmh 29.84 in1010.5 mb 0.00 in0.0 mm 0.00 in0.0 mm 0.06 in1.5 mm
05:10 PM 46.4°F8.0°C 34.5°F1.4°C 63% Calm Calm 5.4 mph8.7 kmh 29.84 in1010.5 mb 0.00 in0.0 mm 0.00 in0.0 mm 0.06 in1.5 mm
05:20 PM 46.4°F8.0°C 34.5°F1.4°C 63% 1.0 mph SE1.6 kmh SE 2.2 mph3.5 kmh 29.84 in1010.5 mb 0.00 in0.0 mm 0.00 in0.0 mm 0.06 in1.5 mm
05:30 PM 46.4°F8.0°C 34.1°F1.2°C 62% 1.0 mph 1.6 kmh 5.4 mph8.7 kmh 29.83 in1010.2 mb 0.00 in0.0 mm 0.00 in0.0 mm 0.06 in1.5 mm
05:40 PM 46.4°F8.0°C 34.1°F1.2°C 62% 3.0 mph S4.8 kmh S 5.4 mph8.7 kmh 29.82 in1009.8 mb 0.00 in0.0 mm 0.00 in0.0 mm 0.06 in1.5 mm
05:50 PM 46.4°F8.0°C 34.1°F1.2°C 62% 1.0 mph SE1.6 kmh SE 3.8 mph6.1 kmh 29.82 in1009.8 mb 0.00 in0.0 mm 0.00 in0.0 mm 0.06 in1.5 mm
06:00 PM 46.4°F8.0°C 33.7°F0.9°C 61% 3.0 mph SE4.8 kmh SE 3.8 mph6.1 kmh 29.82 in1009.8 mb 0.00 in0.0 mm 0.00 in0.0 mm 0.06 in1.5 mm
06:10 PM 46.6°F8.1°C 33.4°F0.8°C 60% 2.0 mph 3.2 kmh 4.5 mph7.2 kmh 29.82 in1009.8 mb 0.00 in0.0 mm 0.00 in0.0 mm 0.06 in1.5 mm
06:20 PM 46.8°F8.2°C 33.6°F0.9°C 60% 2.0 mph E3.2 kmh E 4.5 mph7.2 kmh 29.82 in1009.8 mb 0.00 in0.0 mm 0.00 in0.0 mm 0.06 in1.5 mm
06:30 PM 46.8°F8.2°C 33.6°F0.9°C 60% 3.0 mph E4.8 kmh E 3.8 mph6.1 kmh 29.81 in1009.5 mb 0.00 in0.0 mm 0.00 in0.0 mm 0.06 in1.5 mm
06:40 PM 46.8°F8.2°C 33.6°F0.9°C 60% 3.0 mph NW4.8 kmh NW 3.8 mph6.1 kmh 29.81 in1009.5 mb 0.00 in0.0 mm 0.00 in0.0 mm 0.06 in1.5 mm
06:50 PM 47.1°F8.4°C 32.2°F0.1°C 56% 4.0 mph NE6.4 kmh NE 4.5 mph7.2 kmh 29.81 in1009.5 mb 0.00 in0.0 mm 0.00 in0.0 mm 0.06 in1.5 mm
07:00 PM 47.3°F8.5°C 32.4°F0.2°C 56% 3.0 mph NNE4.8 kmh NNE 6.0 mph9.7 kmh 29.81 in1009.5 mb 0.00 in0.0 mm 0.00 in0.0 mm 0.06 in1.5 mm
07:10 PM 47.3°F8.5°C 32.4°F0.2°C 56% 1.0 mph NE1.6 kmh NE 6.0 mph9.7 kmh 29.82 in1009.8 mb 0.00 in0.0 mm 0.00 in0.0 mm 0.06 in1.5 mm
07:20 PM 47.3°F8.5°C 32.8°F0.4°C 57% 1.0 mph SE1.6 kmh SE 4.5 mph7.2 kmh 29.82 in1009.8 mb 0.00 in0.0 mm 0.00 in0.0 mm 0.06 in1.5 mm
07:30 PM 47.1°F8.4°C 33.5°F0.8°C 59% Calm Calm 4.5 mph7.2 kmh 29.82 in1009.8 mb 0.00 in0.0 mm 0.00 in0.0 mm 0.06 in1.5 mm
07:40 PM 47.1°F8.4°C 34.0°F1.1°C 60% Calm Calm 4.5 mph7.2 kmh 29.81 in1009.5 mb 0.00 in0.0 mm 0.00 in0.0 mm 0.06 in1.5 mm
07:50 PM 46.9°F8.3°C 33.8°F1.0°C 60% 6.0 mph S9.7 kmh S 6.0 mph9.7 kmh 29.81 in1009.5 mb 0.00 in0.0 mm 0.00 in0.0 mm 0.06 in1.5 mm
08:00 PM 47.1°F8.4°C 34.0°F1.1°C 60% 1.0 mph E1.6 kmh E 6.0 mph9.7 kmh 29.80 in1009.1 mb 0.00 in0.0 mm 0.00 in0.0 mm 0.06 in1.5 mm
08:10 PM 47.1°F8.4°C 33.5°F0.8°C 59% 1.0 mph NE1.6 kmh NE 4.5 mph7.2 kmh 29.79 in1008.8 mb 0.00 in0.0 mm 0.00 in0.0 mm 0.06 in1.5 mm
08:20 PM 47.3°F8.5°C 33.7°F0.9°C 59% 1.0 mph NE1.6 kmh NE 6.0 mph9.7 kmh 29.78 in1008.5 mb 0.00 in0.0 mm 0.00 in0.0 mm 0.06 in1.5 mm
08:30 PM 47.3°F8.5°C 33.7°F0.9°C 59% 3.0 mph SSW4.8 kmh SSW 6.0 mph9.7 kmh 29.78 in1008.5 mb 0.00 in0.0 mm 0.00 in0.0 mm 0.06 in1.5 mm
08:40 PM 47.3°F8.5°C 33.7°F0.9°C 59% Calm Calm 5.4 mph8.7 kmh 29.78 in1008.5 mb 0.00 in0.0 mm 0.00 in0.0 mm 0.06 in1.5 mm
08:50 PM 47.3°F8.5°C 34.1°F1.2°C 60% 2.0 mph NE3.2 kmh NE 3.1 mph5.0 kmh 29.78 in1008.5 mb 0.00 in0.0 mm 0.00 in0.0 mm 0.06 in1.5 mm
09:00 PM 47.1°F8.4°C 34.4°F1.3°C 61% 1.0 mph E1.6 kmh E 4.5 mph7.2 kmh 29.78 in1008.5 mb 0.00 in0.0 mm 0.00 in0.0 mm 0.06 in1.5 mm
09:10 PM 46.9°F8.3°C 35.0°F1.7°C 63% 2.0 mph SE3.2 kmh SE 4.5 mph7.2 kmh 29.79 in1008.8 mb 0.00 in0.0 mm 0.00 in0.0 mm 0.06 in1.5 mm
09:20 PM 46.2°F7.9°C 35.9°F2.2°C 67% 3.0 mph NE4.8 kmh NE 3.1 mph5.0 kmh 29.79 in1008.8 mb 0.00 in0.0 mm 0.00 in0.0 mm 0.06 in1.5 mm
09:30 PM 45.7°F7.6°C 36.5°F2.5°C 70% 2.0 mph NE3.2 kmh NE 3.1 mph5.0 kmh 29.79 in1008.8 mb 0.00 in0.0 mm 0.00 in0.0 mm 0.08 in2.0 mm
09:40 PM 45.1°F7.3°C 38.4°F3.6°C 77% Calm Calm 3.1 mph5.0 kmh 29.79 in1008.8 mb 0.04 in1.0 mm 0.24 in6.1 mm 0.09 in2.3 mm
09:50 PM 44.8°F7.1°C 39.0°F3.9°C 80% 3.0 mph 4.8 kmh 3.8 mph6.1 kmh 29.79 in1008.8 mb 0.02 in0.5 mm 0.00 in0.0 mm 0.09 in2.3 mm
10:00 PM 44.6°F7.0°C 39.4°F4.1°C 82% 1.0 mph 1.6 kmh 4.5 mph7.2 kmh 29.79 in1008.8 mb 0.03 in0.8 mm 0.01 in0.3 mm 0.11 in2.8 mm
10:10 PM 44.4°F6.9°C 39.3°F4.1°C 82% 3.0 mph NE4.8 kmh NE 4.5 mph7.2 kmh 29.79 in1008.8 mb 0.05 in1.3 mm 0.12 in3.0 mm 0.12 in3.0 mm
10:20 PM 44.4°F6.9°C 39.6°F4.2°C 83% 1.0 mph SE1.6 kmh SE 4.5 mph7.2 kmh 29.80 in1009.1 mb 0.08 in2.0 mm 0.18 in4.6 mm 0.13 in3.3 mm
10:30 PM 44.4°F6.9°C 40.2°F4.6°C 85% Calm Calm 5.4 mph8.7 kmh 29.81 in1009.5 mb 0.19 in4.8 mm 0.66 in16.8 mm 0.15 in3.8 mm
10:40 PM 44.4°F6.9°C 40.2°F4.6°C 85% 8.0 mph S12.9 kmh S 8.3 mph13.4 kmh 29.83 in1010.2 mb 0.28 in7.1 mm 0.54 in13.7 mm 0.18 in4.6 mm
10:50 PM 44.2°F6.8°C 40.0°F4.4°C 85% 4.0 mph SSE6.4 kmh SSE 8.3 mph13.4 kmh 29.83 in1010.2 mb 0.13 in3.3 mm 0.00 in0.0 mm 0.18 in4.6 mm
11:00 PM 44.1°F6.7°C 39.5°F4.2°C 84% 2.0 mph NE3.2 kmh NE 3.1 mph5.0 kmh 29.84 in1010.5 mb 0.06 in1.5 mm 0.00 in0.0 mm 0.18 in4.6 mm
11:10 PM 43.7°F6.5°C 38.9°F3.8°C 83% Calm Calm 3.8 mph6.1 kmh 29.86 in1011.2 mb 0.03 in0.8 mm 0.00 in0.0 mm 0.18 in4.6 mm
11:20 PM 43.3°F6.3°C 38.5°F3.6°C 83% 6.0 mph NNW9.7 kmh NNW 6.0 mph9.7 kmh 29.87 in1011.5 mb 0.01 in0.3 mm 0.00 in0.0 mm 0.18 in4.6 mm
11:30 PM 42.8°F6.0°C 37.7°F3.2°C 82% 5.0 mph SSW8.0 kmh SSW 6.0 mph9.7 kmh 29.88 in1011.9 mb 0.00 in0.0 mm 0.00 in0.0 mm 0.18 in4.6 mm
11:40 PM 42.3°F5.7°C 36.9°F2.7°C 81% 2.0 mph 3.2 kmh 3.1 mph5.0 kmh 29.89 in1012.2 mb 0.00 in0.0 mm 0.00 in0.0 mm 0.18 in4.6 mm
11:50 PM 41.9°F5.5°C 36.5°F2.5°C 81% Calm Calm 4.5 mph7.2 kmh 29.90 in1012.5 mb 0.00 in0.0 mm 0.00 in0.0 mm 0.18 in4.6 mm